sensor_id;sensor_type;location;lat;lon;timestamp;P1;durP1;ratioP1;P2;durP2;ratioP2
5117;SDS011;2578;51.622;7.046;2022-10-17T00:00:49;8.73;;;8.03;;
5117;SDS011;2578;51.622;7.046;2022-10-17T00:03:15;6.60;;;6.10;;
5117;SDS011;2578;51.622;7.046;2022-10-17T00:05:41;6.70;;;6.20;;
5117;SDS011;2578;51.622;7.046;2022-10-17T00:08:09;6.40;;;5.90;;
5117;SDS011;2578;51.622;7.046;2022-10-17T00:10:36;6.50;;;6.00;;
5117;SDS011;2578;51.622;7.046;2022-10-17T00:13:02;7.00;;;6.50;;
5117;SDS011;2578;51.622;7.046;2022-10-17T00:15:28;7.83;;;7.23;;
5117;SDS011;2578;51.622;7.046;2022-10-17T00:17:54;6.97;;;6.47;;
5117;SDS011;2578;51.622;7.046;2022-10-17T00:20:20;6.70;;;6.20;;
5117;SDS011;2578;51.622;7.046;2022-10-17T00:22:46;6.90;;;6.40;;
5117;SDS011;2578;51.622;7.046;2022-10-17T00:25:12;7.30;;;6.80;;
5117;SDS011;2578;51.622;7.046;2022-10-17T00:27:38;7.33;;;6.83;;
5117;SDS011;2578;51.622;7.046;2022-10-17T00:30:05;8.00;;;7.30;;
5117;SDS011;2578;51.622;7.046;2022-10-17T00:32:33;6.63;;;6.13;;
5117;SDS011;2578;51.622;7.046;2022-10-17T00:34:59;7.47;;;6.97;;
5117;SDS011;2578;51.622;7.046;2022-10-17T00:37:25;7.60;;;7.10;;
5117;SDS011;2578;51.622;7.046;2022-10-17T00:39:50;7.73;;;7.23;;
5117;SDS011;2578;51.622;7.046;2022-10-17T00:42:16;8.40;;;7.70;;
5117;SDS011;2578;51.622;7.046;2022-10-17T00:47:11;7.90;;;7.40;;
5117;SDS011;2578;51.622;7.046;2022-10-17T00:49:40;8.80;;;8.20;;
5117;SDS011;2578;51.622;7.046;2022-10-17T00:52:10;8.27;;;7.67;;
5117;SDS011;2578;51.622;7.046;2022-10-17T00:54:48;8.60;;;8.00;;
5117;SDS011;2578;51.622;7.046;2022-10-17T00:57:18;8.23;;;7.63;;
5117;SDS011;2578;51.622;7.046;2022-10-17T00:59:46;8.50;;;7.90;;
5117;SDS011;2578;51.622;7.046;2022-10-17T01:02:16;8.03;;;7.47;;
5117;SDS011;2578;51.622;7.046;2022-10-17T01:04:44;9.20;;;8.60;;
5117;SDS011;2578;51.622;7.046;2022-10-17T01:07:12;9.60;;;9.00;;
5117;SDS011;2578;51.622;7.046;2022-10-17T01:09:38;9.13;;;8.53;;
5117;SDS011;2578;51.622;7.046;2022-10-17T01:22:49;9.43;;;8.83;;
5117;SDS011;2578;51.622;7.046;2022-10-17T01:31:08;9.50;;;8.90;;
5117;SDS011;2578;51.622;7.046;2022-10-17T01:36:34;10.93;;;10.23;;
5117;SDS011;2578;51.622;7.046;2022-10-17T01:39:19;11.87;;;10.97;;
5117;SDS011;2578;51.622;7.046;2022-10-17T01:44:50;10.57;;;9.87;;
5117;SDS011;2578;51.622;7.046;2022-10-17T01:47:19;10.60;;;9.90;;
5117;SDS011;2578;51.622;7.046;2022-10-17T01:49:48;11.17;;;10.27;;
5117;SDS011;2578;51.622;7.046;2022-10-17T01:52:18;10.90;;;10.10;;
5117;SDS011;2578;51.622;7.046;2022-10-17T01:54:49;13.80;;;12.90;;
5117;SDS011;2578;51.622;7.046;2022-10-17T02:00:05;10.93;;;10.23;;
5117;SDS011;2578;51.622;7.046;2022-10-17T02:02:35;11.63;;;10.83;;
5117;SDS011;2578;51.622;7.046;2022-10-17T02:05:01;10.80;;;10.10;;
5117;SDS011;2578;51.622;7.046;2022-10-17T02:07:28;11.13;;;10.33;;
5117;SDS011;2578;51.622;7.046;2022-10-17T02:09:54;11.87;;;11.17;;
5117;SDS011;2578;51.622;7.046;2022-10-17T02:15:20;10.40;;;9.50;;
5117;SDS011;2578;51.622;7.046;2022-10-17T02:21:27;9.70;;;9.00;;
5117;SDS011;2578;51.622;7.046;2022-10-17T02:27:04;9.60;;;9.00;;
5117;SDS011;2578;51.622;7.046;2022-10-17T02:29:57;9.97;;;9.23;;
5117;SDS011;2578;51.622;7.046;2022-10-17T02:35:18;8.30;;;7.70;;
5117;SDS011;2578;51.622;7.046;2022-10-17T02:37:45;9.63;;;8.93;;
5117;SDS011;2578;51.622;7.046;2022-10-17T02:40:12;10.33;;;8.13;;
5117;SDS011;2578;51.622;7.046;2022-10-17T02:42:39;8.60;;;7.90;;
5117;SDS011;2578;51.622;7.046;2022-10-17T02:45:09;8.73;;;8.03;;
5117;SDS011;2578;51.622;7.046;2022-10-17T02:50:24;9.40;;;8.70;;
5117;SDS011;2578;51.622;7.046;2022-10-17T02:53:12;7.17;;;6.67;;
5117;SDS011;2578;51.622;7.046;2022-10-17T02:55:45;8.50;;;7.70;;
5117;SDS011;2578;51.622;7.046;2022-10-17T02:58:24;6.60;;;6.10;;
5117;SDS011;2578;51.622;7.046;2022-10-17T03:00:54;7.17;;;6.67;;
5117;SDS011;2578;51.622;7.046;2022-10-17T03:03:24;7.67;;;7.07;;
5117;SDS011;2578;51.622;7.046;2022-10-17T03:05:52;6.37;;;5.87;;
5117;SDS011;2578;51.622;7.046;2022-10-17T03:08:18;6.90;;;6.30;;
5117;SDS011;2578;51.622;7.046;2022-10-17T03:10:44;7.57;;;6.87;;
5117;SDS011;2578;51.622;7.046;2022-10-17T03:13:10;6.60;;;6.10;;
5117;SDS011;2578;51.622;7.046;2022-10-17T03:15:35;7.00;;;6.50;;
5117;SDS011;2578;51.622;7.046;2022-10-17T03:18:01;7.77;;;7.17;;
5117;SDS011;2578;51.622;7.046;2022-10-17T03:20:27;7.53;;;7.03;;
5117;SDS011;2578;51.622;7.046;2022-10-17T03:22:53;10.30;;;6.90;;
5117;SDS011;2578;51.622;7.046;2022-10-17T03:25:19;7.40;;;6.90;;
5117;SDS011;2578;51.622;7.046;2022-10-17T03:27:44;7.43;;;6.83;;
5117;SDS011;2578;51.622;7.046;2022-10-17T03:30:10;8.27;;;7.67;;
5117;SDS011;2578;51.622;7.046;2022-10-17T03:32:35;9.70;;;8.80;;
5117;SDS011;2578;51.622;7.046;2022-10-17T03:35:01;7.30;;;6.77;;
5117;SDS011;2578;51.622;7.046;2022-10-17T03:37:27;7.00;;;6.50;;
5117;SDS011;2578;51.622;7.046;2022-10-17T03:39:52;6.70;;;6.20;;
5117;SDS011;2578;51.622;7.046;2022-10-17T03:42:18;7.50;;;6.90;;
5117;SDS011;2578;51.622;7.046;2022-10-17T03:44:44;7.13;;;6.63;;
5117;SDS011;2578;51.622;7.046;2022-10-17T03:47:09;6.87;;;6.37;;
5117;SDS011;2578;51.622;7.046;2022-10-17T03:49:35;6.77;;;6.20;;
5117;SDS011;2578;51.622;7.046;2022-10-17T03:52:00;6.80;;;6.30;;
5117;SDS011;2578;51.622;7.046;2022-10-17T03:54:26;7.67;;;7.07;;
5117;SDS011;2578;51.622;7.046;2022-10-17T03:56:52;7.80;;;7.20;;
5117;SDS011;2578;51.622;7.046;2022-10-17T03:59:17;5.90;;;5.40;;
5117;SDS011;2578;51.622;7.046;2022-10-17T04:01:43;11.53;;;6.73;;
5117;SDS011;2578;51.622;7.046;2022-10-17T04:04:09;6.27;;;5.77;;
5117;SDS011;2578;51.622;7.046;2022-10-17T04:06:35;9.80;;;8.90;;
5117;SDS011;2578;51.622;7.046;2022-10-17T04:09:01;6.10;;;5.60;;
5117;SDS011;2578;51.622;7.046;2022-10-17T04:11:28;6.53;;;5.93;;
5117;SDS011;2578;51.622;7.046;2022-10-17T04:13:54;6.20;;;5.70;;
5117;SDS011;2578;51.622;7.046;2022-10-17T04:16:21;5.90;;;5.40;;
5117;SDS011;2578;51.622;7.046;2022-10-17T04:18:51;5.60;;;5.20;;
5117;SDS011;2578;51.622;7.046;2022-10-17T04:21:21;7.73;;;7.03;;
5117;SDS011;2578;51.622;7.046;2022-10-17T04:23:51;6.83;;;6.33;;
5117;SDS011;2578;51.622;7.046;2022-10-17T04:26:20;9.33;;;6.60;;
5117;SDS011;2578;51.622;7.046;2022-10-17T04:28:46;9.70;;;7.17;;
5117;SDS011;2578;51.622;7.046;2022-10-17T04:31:12;7.23;;;6.63;;
5117;SDS011;2578;51.622;7.046;2022-10-17T04:33:39;7.83;;;7.07;;
5117;SDS011;2578;51.622;7.046;2022-10-17T04:36:06;7.40;;;6.77;;
5117;SDS011;2578;51.622;7.046;2022-10-17T04:38:34;6.87;;;6.37;;
5117;SDS011;2578;51.622;7.046;2022-10-17T04:41:01;5.60;;;5.20;;
5117;SDS011;2578;51.622;7.046;2022-10-17T04:43:28;6.10;;;5.60;;
5117;SDS011;2578;51.622;7.046;2022-10-17T04:45:58;6.70;;;6.10;;
5117;SDS011;2578;51.622;7.046;2022-10-17T04:48:25;6.03;;;5.60;;
5117;SDS011;2578;51.622;7.046;2022-10-17T04:50:53;9.03;;;6.93;;
5117;SDS011;2578;51.622;7.046;2022-10-17T04:53:19;7.10;;;6.57;;
5117;SDS011;2578;51.622;7.046;2022-10-17T04:55:45;6.73;;;6.23;;
5117;SDS011;2578;51.622;7.046;2022-10-17T04:58:11;6.43;;;5.93;;
5117;SDS011;2578;51.622;7.046;2022-10-17T05:00:36;6.07;;;5.57;;
5117;SDS011;2578;51.622;7.046;2022-10-17T05:03:02;6.40;;;5.90;;
5117;SDS011;2578;51.622;7.046;2022-10-17T05:05:28;5.30;;;4.90;;
5117;SDS011;2578;51.622;7.046;2022-10-17T05:07:54;5.70;;;5.20;;
5117;SDS011;2578;51.622;7.046;2022-10-17T05:10:19;5.90;;;5.40;;
5117;SDS011;2578;51.622;7.046;2022-10-17T05:12:46;7.17;;;5.83;;
5117;SDS011;2578;51.622;7.046;2022-10-17T05:15:12;6.20;;;5.70;;
5117;SDS011;2578;51.622;7.046;2022-10-17T05:17:38;6.23;;;5.73;;
5117;SDS011;2578;51.622;7.046;2022-10-17T05:20:04;5.40;;;5.00;;
5117;SDS011;2578;51.622;7.046;2022-10-17T05:22:30;5.90;;;5.40;;
5117;SDS011;2578;51.622;7.046;2022-10-17T05:24:55;10.30;;;5.53;;
5117;SDS011;2578;51.622;7.046;2022-10-17T05:27:21;5.17;;;4.67;;
5117;SDS011;2578;51.622;7.046;2022-10-17T05:29:47;4.60;;;4.20;;
5117;SDS011;2578;51.622;7.046;2022-10-17T05:32:13;4.77;;;4.27;;
5117;SDS011;2578;51.622;7.046;2022-10-17T05:34:39;4.70;;;4.20;;
5117;SDS011;2578;51.622;7.046;2022-10-17T05:37:05;4.10;;;3.70;;
5117;SDS011;2578;51.622;7.046;2022-10-17T05:39:33;4.80;;;4.40;;
5117;SDS011;2578;51.622;7.046;2022-10-17T05:41:59;4.73;;;4.33;;
5117;SDS011;2578;51.622;7.046;2022-10-17T05:44:25;4.30;;;3.90;;
5117;SDS011;2578;51.622;7.046;2022-10-17T05:46:50;4.60;;;4.20;;
5117;SDS011;2578;51.622;7.046;2022-10-17T05:49:16;5.33;;;4.37;;
5117;SDS011;2578;51.622;7.046;2022-10-17T05:51:42;7.10;;;3.93;;
5117;SDS011;2578;51.622;7.046;2022-10-17T05:54:07;4.20;;;3.80;;
5117;SDS011;2578;51.622;7.046;2022-10-17T05:56:33;4.83;;;3.80;;
5117;SDS011;2578;51.622;7.046;2022-10-17T05:58:59;6.33;;;4.53;;
5117;SDS011;2578;51.622;7.046;2022-10-17T06:01:25;3.87;;;3.30;;
5117;SDS011;2578;51.622;7.046;2022-10-17T06:03:51;5.20;;;3.77;;
5117;SDS011;2578;51.622;7.046;2022-10-17T06:06:17;3.70;;;3.30;;
5117;SDS011;2578;51.622;7.046;2022-10-17T06:08:43;3.80;;;3.30;;
5117;SDS011;2578;51.622;7.046;2022-10-17T06:11:10;4.43;;;4.03;;
5117;SDS011;2578;51.622;7.046;2022-10-17T06:13:37;5.10;;;4.43;;
5117;SDS011;2578;51.622;7.046;2022-10-17T06:16:03;4.43;;;3.67;;
5117;SDS011;2578;51.622;7.046;2022-10-17T06:18:29;4.77;;;3.70;;
5117;SDS011;2578;51.622;7.046;2022-10-17T06:21:05;4.00;;;3.60;;
5117;SDS011;2578;51.622;7.046;2022-10-17T06:23:32;4.77;;;3.80;;
5117;SDS011;2578;51.622;7.046;2022-10-17T06:25:59;4.57;;;3.97;;
5117;SDS011;2578;51.622;7.046;2022-10-17T06:28:25;3.80;;;3.20;;
5117;SDS011;2578;51.622;7.046;2022-10-17T06:30:51;4.77;;;3.17;;
5117;SDS011;2578;51.622;7.046;2022-10-17T06:33:17;5.20;;;3.33;;
5117;SDS011;2578;51.622;7.046;2022-10-17T06:35:42;6.03;;;3.00;;
5117;SDS011;2578;51.622;7.046;2022-10-17T06:38:08;3.40;;;2.70;;
5117;SDS011;2578;51.622;7.046;2022-10-17T06:40:34;4.03;;;3.00;;
5117;SDS011;2578;51.622;7.046;2022-10-17T06:43:00;3.70;;;2.87;;
5117;SDS011;2578;51.622;7.046;2022-10-17T06:45:25;4.10;;;3.23;;
5117;SDS011;2578;51.622;7.046;2022-10-17T06:47:51;3.50;;;3.00;;
5117;SDS011;2578;51.622;7.046;2022-10-17T06:50:17;3.50;;;2.90;;
5117;SDS011;2578;51.622;7.046;2022-10-17T06:52:42;4.00;;;3.17;;
5117;SDS011;2578;51.622;7.046;2022-10-17T06:55:08;3.60;;;2.80;;
5117;SDS011;2578;51.622;7.046;2022-10-17T06:57:34;22.03;;;4.07;;
5117;SDS011;2578;51.622;7.046;2022-10-17T06:59:59;4.30;;;3.13;;
5117;SDS011;2578;51.622;7.046;2022-10-17T07:02:25;3.90;;;3.10;;
5117;SDS011;2578;51.622;7.046;2022-10-17T07:04:51;3.97;;;2.80;;
5117;SDS011;2578;51.622;7.046;2022-10-17T07:07:17;3.60;;;2.90;;
5117;SDS011;2578;51.622;7.046;2022-10-17T07:09:42;3.40;;;2.70;;
5117;SDS011;2578;51.622;7.046;2022-10-17T07:12:08;5.70;;;3.73;;
5117;SDS011;2578;51.622;7.046;2022-10-17T07:14:36;5.40;;;4.33;;
5117;SDS011;2578;51.622;7.046;2022-10-17T07:17:01;5.23;;;4.00;;
5117;SDS011;2578;51.622;7.046;2022-10-17T07:19:27;3.50;;;2.60;;
5117;SDS011;2578;51.622;7.046;2022-10-17T07:21:53;4.40;;;3.10;;
5117;SDS011;2578;51.622;7.046;2022-10-17T07:24:19;5.30;;;3.50;;
5117;SDS011;2578;51.622;7.046;2022-10-17T07:26:44;4.13;;;3.73;;
5117;SDS011;2578;51.622;7.046;2022-10-17T07:29:10;13.23;;;3.60;;
5117;SDS011;2578;51.622;7.046;2022-10-17T07:31:36;3.53;;;3.20;;
5117;SDS011;2578;51.622;7.046;2022-10-17T07:34:02;4.60;;;4.10;;
5117;SDS011;2578;51.622;7.046;2022-10-17T07:36:27;4.40;;;4.00;;
5117;SDS011;2578;51.622;7.046;2022-10-17T07:38:53;4.90;;;4.30;;
5117;SDS011;2578;51.622;7.046;2022-10-17T07:41:19;5.33;;;4.63;;
5117;SDS011;2578;51.622;7.046;2022-10-17T07:43:44;5.97;;;5.30;;
5117;SDS011;2578;51.622;7.046;2022-10-17T07:46:10;4.30;;;3.90;;
5117;SDS011;2578;51.622;7.046;2022-10-17T07:48:37;4.83;;;4.43;;
5117;SDS011;2578;51.622;7.046;2022-10-17T07:51:06;6.20;;;5.70;;
5117;SDS011;2578;51.622;7.046;2022-10-17T07:53:34;6.40;;;5.90;;
5117;SDS011;2578;51.622;7.046;2022-10-17T07:56:05;6.30;;;5.80;;
5117;SDS011;2578;51.622;7.046;2022-10-17T07:58:31;6.30;;;5.80;;
5117;SDS011;2578;51.622;7.046;2022-10-17T08:01:00;5.70;;;5.30;;
5117;SDS011;2578;51.622;7.046;2022-10-17T08:03:27;5.80;;;5.40;;
5117;SDS011;2578;51.622;7.046;2022-10-17T08:05:56;6.10;;;5.60;;
5117;SDS011;2578;51.622;7.046;2022-10-17T08:08:25;5.90;;;5.40;;
5117;SDS011;2578;51.622;7.046;2022-10-17T08:10:51;6.37;;;5.83;;
5117;SDS011;2578;51.622;7.046;2022-10-17T08:13:18;5.90;;;5.40;;
5117;SDS011;2578;51.622;7.046;2022-10-17T08:15:43;6.70;;;6.20;;
5117;SDS011;2578;51.622;7.046;2022-10-17T08:18:11;6.90;;;6.40;;
5117;SDS011;2578;51.622;7.046;2022-10-17T08:20:38;9.87;;;8.97;;
5117;SDS011;2578;51.622;7.046;2022-10-17T08:23:04;8.17;;;7.57;;
5117;SDS011;2578;51.622;7.046;2022-10-17T08:25:30;9.87;;;9.17;;
5117;SDS011;2578;51.622;7.046;2022-10-17T08:27:56;8.80;;;8.20;;
5117;SDS011;2578;51.622;7.046;2022-10-17T08:30:22;9.97;;;9.27;;
5117;SDS011;2578;51.622;7.046;2022-10-17T08:32:48;9.70;;;9.00;;
5117;SDS011;2578;51.622;7.046;2022-10-17T08:35:13;9.07;;;8.47;;
5117;SDS011;2578;51.622;7.046;2022-10-17T08:37:39;7.87;;;7.37;;
5117;SDS011;2578;51.622;7.046;2022-10-17T08:40:06;10.23;;;9.53;;
5117;SDS011;2578;51.622;7.046;2022-10-17T08:48:12;10.00;;;9.40;;
5117;SDS011;2578;51.622;7.046;2022-10-17T08:50:46;11.30;;;10.60;;
5117;SDS011;2578;51.622;7.046;2022-10-17T08:53:28;11.80;;;11.10;;
5117;SDS011;2578;51.622;7.046;2022-10-17T08:56:05;12.20;;;11.47;;
5117;SDS011;2578;51.622;7.046;2022-10-17T08:58:42;13.80;;;12.90;;
5117;SDS011;2578;51.622;7.046;2022-10-17T09:10:04;13.47;;;12.67;;
5117;SDS011;2578;51.622;7.046;2022-10-17T09:18:08;13.10;;;12.30;;
5117;SDS011;2578;51.622;7.046;2022-10-17T09:20:58;14.00;;;13.10;;
5117;SDS011;2578;51.622;7.046;2022-10-17T09:23:31;15.50;;;14.50;;
5117;SDS011;2578;51.622;7.046;2022-10-17T09:26:07;15.53;;;14.53;;
5117;SDS011;2578;51.622;7.046;2022-10-17T09:28:36;15.83;;;14.83;;
5117;SDS011;2578;51.622;7.046;2022-10-17T09:31:11;18.67;;;17.30;;
5117;SDS011;2578;51.622;7.046;2022-10-17T09:33:47;16.50;;;15.40;;
5117;SDS011;2578;51.622;7.046;2022-10-17T09:36:23;15.93;;;14.93;;
5117;SDS011;2578;51.622;7.046;2022-10-17T09:38:54;14.23;;;13.33;;
5117;SDS011;2578;51.622;7.046;2022-10-17T09:44:06;17.20;;;15.80;;
5117;SDS011;2578;51.622;7.046;2022-10-17T09:46:57;15.10;;;14.10;;
5117;SDS011;2578;51.622;7.046;2022-10-17T09:49:33;14.70;;;13.70;;
5117;SDS011;2578;51.622;7.046;2022-10-17T09:52:05;14.57;;;13.63;;
5117;SDS011;2578;51.622;7.046;2022-10-17T09:54:46;13.63;;;12.73;;
5117;SDS011;2578;51.622;7.046;2022-10-17T09:57:15;12.63;;;11.83;;
5117;SDS011;2578;51.622;7.046;2022-10-17T09:59:43;11.87;;;11.17;;
5117;SDS011;2578;51.622;7.046;2022-10-17T10:04:41;12.00;;;11.30;;
5117;SDS011;2578;51.622;7.046;2022-10-17T10:07:15;12.10;;;11.40;;
5117;SDS011;2578;51.622;7.046;2022-10-17T10:09:44;11.90;;;11.10;;
5117;SDS011;2578;51.622;7.046;2022-10-17T10:12:17;21.23;;;11.33;;
5117;SDS011;2578;51.622;7.046;2022-10-17T10:14:45;11.00;;;10.30;;
5117;SDS011;2578;51.622;7.046;2022-10-17T10:19:59;11.87;;;10.90;;
5117;SDS011;2578;51.622;7.046;2022-10-17T10:22:25;10.30;;;9.70;;
5117;SDS011;2578;51.622;7.046;2022-10-17T10:27:35;9.60;;;9.00;;
5117;SDS011;2578;51.622;7.046;2022-10-17T10:30:01;10.60;;;9.90;;
5117;SDS011;2578;51.622;7.046;2022-10-17T10:32:28;9.40;;;8.80;;
5117;SDS011;2578;51.622;7.046;2022-10-17T10:35:02;13.20;;;10.80;;
5117;SDS011;2578;51.622;7.046;2022-10-17T10:37:35;8.90;;;8.30;;
5117;SDS011;2578;51.622;7.046;2022-10-17T10:40:18;8.80;;;8.20;;
5117;SDS011;2578;51.622;7.046;2022-10-17T10:42:51;7.80;;;7.30;;
5117;SDS011;2578;51.622;7.046;2022-10-17T10:45:43;8.20;;;7.70;;
5117;SDS011;2578;51.622;7.046;2022-10-17T10:50:51;9.00;;;8.40;;
5117;SDS011;2578;51.622;7.046;2022-10-17T10:53:37;8.97;;;8.33;;
5117;SDS011;2578;51.622;7.046;2022-10-17T10:56:19;11.00;;;10.20;;
5117;SDS011;2578;51.622;7.046;2022-10-17T11:04:25;11.10;;;10.40;;
5117;SDS011;2578;51.622;7.046;2022-10-17T11:06:52;10.30;;;9.70;;
5117;SDS011;2578;51.622;7.046;2022-10-17T11:09:31;11.27;;;10.30;;
5117;SDS011;2578;51.622;7.046;2022-10-17T11:12:08;11.00;;;10.30;;
5117;SDS011;2578;51.622;7.046;2022-10-17T11:14:50;10.70;;;10.00;;
5117;SDS011;2578;51.622;7.046;2022-10-17T11:26:20;7.20;;;6.70;;
5117;SDS011;2578;51.622;7.046;2022-10-17T11:28:54;5.50;;;5.10;;
5117;SDS011;2578;51.622;7.046;2022-10-17T11:31:22;5.10;;;4.70;;
5117;SDS011;2578;51.622;7.046;2022-10-17T11:33:58;5.10;;;4.70;;
5117;SDS011;2578;51.622;7.046;2022-10-17T11:36:29;4.53;;;4.13;;
5117;SDS011;2578;51.622;7.046;2022-10-17T11:38:59;3.90;;;3.50;;
5117;SDS011;2578;51.622;7.046;2022-10-17T11:41:40;3.63;;;3.30;;
5117;SDS011;2578;51.622;7.046;2022-10-17T11:46:59;3.87;;;3.23;;
5117;SDS011;2578;51.622;7.046;2022-10-17T11:49:39;3.33;;;3.00;;
5117;SDS011;2578;51.622;7.046;2022-10-17T11:54:59;3.30;;;2.90;;
5117;SDS011;2578;51.622;7.046;2022-10-17T12:13:53;3.30;;;3.00;;
5117;SDS011;2578;51.622;7.046;2022-10-17T12:21:52;3.90;;;3.50;;
5117;SDS011;2578;51.622;7.046;2022-10-17T12:25:15;3.43;;;3.13;;
5117;SDS011;2578;51.622;7.046;2022-10-17T12:32:36;6.70;;;5.77;;
5117;SDS011;2578;51.622;7.046;2022-10-17T12:35:03;3.70;;;3.40;;
5117;SDS011;2578;51.622;7.046;2022-10-17T12:51:07;10.07;;;3.90;;
5117;SDS011;2578;51.622;7.046;2022-10-17T12:56:34;3.47;;;3.07;;
5117;SDS011;2578;51.622;7.046;2022-10-17T12:59:00;3.40;;;3.00;;
5117;SDS011;2578;51.622;7.046;2022-10-17T13:01:52;3.10;;;2.37;;
5117;SDS011;2578;51.622;7.046;2022-10-17T13:04:22;4.37;;;3.03;;
5117;SDS011;2578;51.622;7.046;2022-10-17T13:06:53;3.50;;;2.90;;
5117;SDS011;2578;51.622;7.046;2022-10-17T13:09:28;4.23;;;3.80;;
5117;SDS011;2578;51.622;7.046;2022-10-17T13:11:56;3.40;;;2.90;;
5117;SDS011;2578;51.622;7.046;2022-10-17T13:14:23;4.37;;;3.03;;
5117;SDS011;2578;51.622;7.046;2022-10-17T13:19:22;3.90;;;3.00;;
5117;SDS011;2578;51.622;7.046;2022-10-17T13:24:28;3.30;;;2.87;;
5117;SDS011;2578;51.622;7.046;2022-10-17T13:26:54;3.23;;;2.60;;
5117;SDS011;2578;51.622;7.046;2022-10-17T13:29:20;3.30;;;2.80;;
5117;SDS011;2578;51.622;7.046;2022-10-17T13:31:51;5.67;;;2.80;;
5117;SDS011;2578;51.622;7.046;2022-10-17T13:34:22;6.40;;;3.87;;
5117;SDS011;2578;51.622;7.046;2022-10-17T13:36:54;4.53;;;3.43;;
5117;SDS011;2578;51.622;7.046;2022-10-17T13:39:32;3.67;;;3.20;;
5117;SDS011;2578;51.622;7.046;2022-10-17T13:42:00;3.20;;;2.50;;
5117;SDS011;2578;51.622;7.046;2022-10-17T13:44:27;3.10;;;2.30;;
5117;SDS011;2578;51.622;7.046;2022-10-17T13:46:59;7.43;;;4.53;;
5117;SDS011;2578;51.622;7.046;2022-10-17T13:49:28;3.20;;;2.40;;
5117;SDS011;2578;51.622;7.046;2022-10-17T13:51:58;4.50;;;4.03;;
5117;SDS011;2578;51.622;7.046;2022-10-17T13:57:00;7.10;;;3.23;;
5117;SDS011;2578;51.622;7.046;2022-10-17T13:59:39;3.13;;;2.30;;
5117;SDS011;2578;51.622;7.046;2022-10-17T14:02:10;3.17;;;2.20;;
5117;SDS011;2578;51.622;7.046;2022-10-17T14:04:57;3.10;;;2.10;;
5117;SDS011;2578;51.622;7.046;2022-10-17T14:10:04;6.40;;;3.93;;
5117;SDS011;2578;51.622;7.046;2022-10-17T14:12:31;4.73;;;3.07;;
5117;SDS011;2578;51.622;7.046;2022-10-17T14:14:57;8.23;;;4.10;;
5117;SDS011;2578;51.622;7.046;2022-10-17T14:17:26;4.13;;;2.60;;
5117;SDS011;2578;51.622;7.046;2022-10-17T14:19:54;7.37;;;5.30;;
5117;SDS011;2578;51.622;7.046;2022-10-17T14:22:28;7.13;;;4.50;;
5117;SDS011;2578;51.622;7.046;2022-10-17T14:24:57;4.23;;;3.00;;
5117;SDS011;2578;51.622;7.046;2022-10-17T14:27:27;9.53;;;4.37;;
5117;SDS011;2578;51.622;7.046;2022-10-17T14:30:04;3.40;;;2.43;;
5117;SDS011;2578;51.622;7.046;2022-10-17T14:32:49;4.43;;;3.33;;
5117;SDS011;2578;51.622;7.046;2022-10-17T14:35:15;6.90;;;4.20;;
5117;SDS011;2578;51.622;7.046;2022-10-17T14:37:42;3.40;;;2.13;;
5117;SDS011;2578;51.622;7.046;2022-10-17T14:40:17;5.77;;;4.80;;
5117;SDS011;2578;51.622;7.046;2022-10-17T14:42:45;4.50;;;2.80;;
5117;SDS011;2578;51.622;7.046;2022-10-17T14:45:13;3.80;;;2.80;;
5117;SDS011;2578;51.622;7.046;2022-10-17T14:47:47;3.60;;;2.40;;
5117;SDS011;2578;51.622;7.046;2022-10-17T14:52:39;6.20;;;3.63;;
5117;SDS011;2578;51.622;7.046;2022-10-17T14:58:15;5.80;;;3.53;;
5117;SDS011;2578;51.622;7.046;2022-10-17T15:00:42;5.00;;;3.77;;
5117;SDS011;2578;51.622;7.046;2022-10-17T15:03:07;9.60;;;4.07;;
5117;SDS011;2578;51.622;7.046;2022-10-17T15:05:33;3.30;;;2.30;;
5117;SDS011;2578;51.622;7.046;2022-10-17T15:07:59;5.23;;;3.47;;
5117;SDS011;2578;51.622;7.046;2022-10-17T15:10:31;6.10;;;3.63;;
5117;SDS011;2578;51.622;7.046;2022-10-17T15:13:00;3.13;;;2.00;;
5117;SDS011;2578;51.622;7.046;2022-10-17T15:15:29;3.40;;;2.00;;
5117;SDS011;2578;51.622;7.046;2022-10-17T15:17:56;7.37;;;2.87;;
5117;SDS011;2578;51.622;7.046;2022-10-17T15:20:23;3.90;;;2.97;;
5117;SDS011;2578;51.622;7.046;2022-10-17T15:22:52;5.20;;;3.40;;
5117;SDS011;2578;51.622;7.046;2022-10-17T15:25:18;4.20;;;2.73;;
5117;SDS011;2578;51.622;7.046;2022-10-17T15:27:44;3.70;;;2.20;;
5117;SDS011;2578;51.622;7.046;2022-10-17T15:30:20;3.60;;;2.37;;
5117;SDS011;2578;51.622;7.046;2022-10-17T15:32:54;3.80;;;2.63;;
5117;SDS011;2578;51.622;7.046;2022-10-17T15:35:20;6.17;;;3.57;;
5117;SDS011;2578;51.622;7.046;2022-10-17T15:37:46;4.07;;;2.40;;
5117;SDS011;2578;51.622;7.046;2022-10-17T15:40:17;3.40;;;2.10;;
5117;SDS011;2578;51.622;7.046;2022-10-17T15:42:46;3.70;;;2.27;;
5117;SDS011;2578;51.622;7.046;2022-10-17T15:45:13;4.33;;;2.63;;
5117;SDS011;2578;51.622;7.046;2022-10-17T15:47:41;3.70;;;2.67;;
5117;SDS011;2578;51.622;7.046;2022-10-17T15:50:12;7.90;;;3.20;;
5117;SDS011;2578;51.622;7.046;2022-10-17T15:52:39;3.70;;;2.30;;
5117;SDS011;2578;51.622;7.046;2022-10-17T15:55:05;3.10;;;1.70;;
5117;SDS011;2578;51.622;7.046;2022-10-17T15:57:33;7.77;;;3.47;;
5117;SDS011;2578;51.622;7.046;2022-10-17T16:00:03;4.50;;;3.23;;
5117;SDS011;2578;51.622;7.046;2022-10-17T16:02:31;5.43;;;4.17;;
5117;SDS011;2578;51.622;7.046;2022-10-17T16:04:58;3.77;;;2.40;;
5117;SDS011;2578;51.622;7.046;2022-10-17T16:07:24;5.30;;;4.30;;
5117;SDS011;2578;51.622;7.046;2022-10-17T16:09:49;4.10;;;2.77;;
5117;SDS011;2578;51.622;7.046;2022-10-17T16:12:24;3.50;;;3.00;;
5117;SDS011;2578;51.622;7.046;2022-10-17T16:14:52;5.13;;;4.17;;
5117;SDS011;2578;51.622;7.046;2022-10-17T16:17:21;4.20;;;3.80;;
5117;SDS011;2578;51.622;7.046;2022-10-17T16:19:47;5.50;;;5.00;;
5117;SDS011;2578;51.622;7.046;2022-10-17T16:22:20;4.97;;;4.47;;
5117;SDS011;2578;51.622;7.046;2022-10-17T16:25:00;5.50;;;4.30;;
5117;SDS011;2578;51.622;7.046;2022-10-17T16:27:34;5.17;;;4.77;;
5117;SDS011;2578;51.622;7.046;2022-10-17T16:30:01;4.77;;;4.37;;
5117;SDS011;2578;51.622;7.046;2022-10-17T16:32:28;6.70;;;5.47;;
5117;SDS011;2578;51.622;7.046;2022-10-17T16:34:54;8.10;;;5.33;;
5117;SDS011;2578;51.622;7.046;2022-10-17T16:37:20;3.90;;;3.50;;
5117;SDS011;2578;51.622;7.046;2022-10-17T16:39:45;3.70;;;3.30;;
5117;SDS011;2578;51.622;7.046;2022-10-17T16:42:16;3.97;;;3.57;;
5117;SDS011;2578;51.622;7.046;2022-10-17T16:44:42;4.20;;;3.80;;
5117;SDS011;2578;51.622;7.046;2022-10-17T16:47:08;4.70;;;4.20;;
5117;SDS011;2578;51.622;7.046;2022-10-17T16:49:34;3.77;;;3.37;;
5117;SDS011;2578;51.622;7.046;2022-10-17T16:52:00;3.50;;;2.97;;
5117;SDS011;2578;51.622;7.046;2022-10-17T16:54:25;3.50;;;2.87;;
5117;SDS011;2578;51.622;7.046;2022-10-17T16:56:51;3.90;;;3.50;;
5117;SDS011;2578;51.622;7.046;2022-10-17T16:59:16;7.60;;;4.20;;
5117;SDS011;2578;51.622;7.046;2022-10-17T17:01:42;3.50;;;3.03;;
5117;SDS011;2578;51.622;7.046;2022-10-17T17:04:08;3.40;;;2.70;;
5117;SDS011;2578;51.622;7.046;2022-10-17T17:06:33;4.30;;;3.63;;
5117;SDS011;2578;51.622;7.046;2022-10-17T17:09:00;4.90;;;3.60;;
5117;SDS011;2578;51.622;7.046;2022-10-17T17:11:26;9.33;;;3.87;;
5117;SDS011;2578;51.622;7.046;2022-10-17T17:13:56;3.50;;;2.70;;
5117;SDS011;2578;51.622;7.046;2022-10-17T17:16:23;3.50;;;2.70;;
5117;SDS011;2578;51.622;7.046;2022-10-17T17:18:57;4.53;;;3.00;;
5117;SDS011;2578;51.622;7.046;2022-10-17T17:21:28;5.30;;;3.47;;
5117;SDS011;2578;51.622;7.046;2022-10-17T17:23:59;3.40;;;2.70;;
5117;SDS011;2578;51.622;7.046;2022-10-17T17:26:29;3.60;;;2.87;;
5117;SDS011;2578;51.622;7.046;2022-10-17T17:28:59;3.67;;;2.80;;
5117;SDS011;2578;51.622;7.046;2022-10-17T17:31:26;3.53;;;2.87;;
5117;SDS011;2578;51.622;7.046;2022-10-17T17:33:54;3.50;;;2.60;;
5117;SDS011;2578;51.622;7.046;2022-10-17T17:36:23;3.60;;;2.90;;
5117;SDS011;2578;51.622;7.046;2022-10-17T17:38:54;5.80;;;4.63;;
5117;SDS011;2578;51.622;7.046;2022-10-17T17:41:22;4.10;;;3.60;;
5117;SDS011;2578;51.622;7.046;2022-10-17T17:43:48;3.50;;;3.00;;
5117;SDS011;2578;51.622;7.046;2022-10-17T17:46:15;3.50;;;2.83;;
5117;SDS011;2578;51.622;7.046;2022-10-17T17:48:42;11.67;;;10.30;;
5117;SDS011;2578;51.622;7.046;2022-10-17T17:51:10;3.40;;;2.60;;
5117;SDS011;2578;51.622;7.046;2022-10-17T17:53:37;3.53;;;2.73;;
5117;SDS011;2578;51.622;7.046;2022-10-17T17:56:04;3.50;;;2.70;;
5117;SDS011;2578;51.622;7.046;2022-10-17T17:58:32;8.20;;;6.10;;